Time;durP1;ratioP1;P1;durP2;ratioP2;P2;SDS_P1;SDS_P2;PMS_P1;PMS_P2;Temp;Humidity;BMP_temperature;BMP_pressure;BME280_temperature;BME280_humidity;BME280_pressure;Samples;Min_cycle;Max_cycle;Signal;HPM_P1;HPM_P2
2023/03/28 00:00:28;;;;;;;2.42;1.00;;;;;;;19.81;34.32;102482.13;5036687;28;20075;-66
2023/03/28 00:02:54;;;;;;;1.50;0.90;;;;;;;19.77;34.31;102483.41;5037708;28;20438;-65
2023/03/28 00:05:20;;;;;;;2.75;1.30;;;;;;;19.75;34.43;102487.97;5035845;28;20049;-65
2023/03/28 00:07:46;;;;;;;3.03;0.77;;;;;;;19.80;34.20;102481.31;5040204;28;21826;-65
2023/03/28 00:10:12;;;;;;;2.03;0.93;;;;;;;19.76;34.33;102482.56;5038802;28;20033;-65
2023/03/28 00:12:38;;;;;;;2.17;1.10;;;;;;;19.77;34.38;102492.16;5039307;28;20069;-65
2023/03/28 00:15:04;;;;;;;2.78;1.10;;;;;;;19.71;34.47;102499.78;5037822;28;20138;-65
2023/03/28 00:17:30;;;;;;;1.83;0.98;;;;;;;19.71;34.46;102505.91;5036231;28;20158;-66
2023/03/28 00:19:56;;;;;;;1.17;0.65;;;;;;;19.69;34.45;102497.28;5035753;28;20146;-66
2023/03/28 00:22:22;;;;;;;1.50;0.80;;;;;;;19.71;34.53;102490.06;5039695;28;20092;-65
2023/03/28 00:24:49;;;;;;;3.08;1.10;;;;;;;19.72;34.36;102497.00;5039570;28;20056;-66
2023/03/28 00:27:16;;;;;;;3.33;1.23;;;;;;;19.74;34.27;102491.59;5039829;28;20736;-66
2023/03/28 00:29:43;;;;;;;1.60;1.00;;;;;;;19.73;34.31;102496.03;5038872;28;20040;-66
2023/03/28 00:32:09;;;;;;;1.55;0.82;;;;;;;19.76;34.36;102494.94;5037711;28;20459;-65
2023/03/28 00:34:34;;;;;;;1.85;1.17;;;;;;;19.77;34.26;102489.53;5036694;28;20052;-66
2023/03/28 00:37:01;;;;;;;1.90;0.90;;;;;;;19.74;34.36;102502.16;5039473;28;20037;-66
2023/03/28 00:39:28;;;;;;;2.28;1.10;;;;;;;19.91;34.10;102499.66;5036718;28;20021;-66
2023/03/28 00:41:54;;;;;;;1.77;0.98;;;;;;;19.86;34.15;102495.78;5068650;28;21972;-66
2023/03/28 00:44:56;;;;;;;1.42;0.85;;;;;;;19.77;34.29;102508.03;5036273;28;20040;-66
2023/03/28 00:48:02;;;;;;;1.52;0.90;;;;;;;19.78;34.28;102499.13;4988261;28;20057;-67
2023/03/28 00:50:35;;;;;;;1.48;1.00;;;;;;;19.92;34.05;102505.78;5017674;28;20443;-66
2023/03/28 00:53:12;;;;;;;2.03;1.17;;;;;;;19.92;34.05;102505.78;5031885;28;20148;-66
2023/03/28 00:55:50;;;;;;;2.78;1.05;;;;;;;19.89;34.06;102506.88;5035341;28;20055;-66
2023/03/28 00:58:23;;;;;;;2.00;1.10;;;;;;;19.83;34.17;102501.34;5036809;28;20040;-66
2023/03/28 01:00:53;;;;;;;1.23;0.95;;;;;;;19.86;34.11;102503.69;5031133;28;20032;-66
2023/03/28 01:03:24;;;;;;;1.20;0.88;;;;;;;19.79;34.19;102503.44;5035251;28;20395;-66
2023/03/28 01:05:50;;;;;;;3.55;1.17;;;;;;;19.84;34.14;102501.19;5035093;28;20057;-65
2023/03/28 01:08:30;;;;;;;1.08;0.68;;;;;;;19.72;34.34;102496.19;5038659;28;20061;-65
2023/03/28 01:10:55;;;;;;;2.58;0.70;;;;;;;19.79;34.22;102500.78;5050038;28;20033;-66
2023/03/28 01:13:28;;;;;;;1.55;1.27;;;;;;;19.74;34.23;102494.22;5032932;28;20048;-66
2023/03/28 01:15:55;;;;;;;2.15;1.00;;;;;;;19.76;34.30;102501.06;5032388;28;20033;-66
2023/03/28 01:18:22;;;;;;;1.83;0.77;;;;;;;19.72;34.31;102498.81;5032934;28;20087;-65
2023/03/28 01:20:50;;;;;;;1.85;0.73;;;;;;;19.71;34.39;102507.72;5041763;28;20061;-65
2023/03/28 01:23:19;;;;;;;1.85;1.00;;;;;;;19.63;34.50;102502.31;5033515;28;20033;-65
2023/03/28 01:25:48;;;;;;;1.13;1.00;;;;;;;19.69;34.41;102509.66;5048116;28;20171;-66
2023/03/28 01:28:41;;;;;;;1.73;1.08;;;;;;;19.65;34.47;102506.47;5031630;28;20029;-67
2023/03/28 01:31:26;;;;;;;1.10;0.90;;;;;;;19.68;34.26;102508.00;5054453;28;20155;-67
2023/03/28 01:34:43;;;;;;;0.73;0.55;;;;;;;19.59;34.42;102501.75;5034528;28;20045;-65
2023/03/28 01:38:01;;;;;;;2.03;0.90;;;;;;;19.53;34.51;102494.31;5035687;28;20029;-66
2023/03/28 01:40:27;;;;;;;1.63;1.02;;;;;;;19.61;34.42;102494.53;5017922;28;20053;-66
2023/03/28 01:43:17;;;;;;;1.85;0.75;;;;;;;19.71;34.24;102497.16;5034483;28;20119;-66
2023/03/28 01:45:55;;;;;;;3.30;0.98;;;;;;;20.01;33.77;102501.47;5031444;28;20128;-65
2023/03/28 01:48:40;;;;;;;2.10;1.02;;;;;;;20.08;33.50;102500.75;5032356;28;20663;-66
2023/03/28 01:51:48;;;;;;;2.05;0.98;;;;;;;20.06;33.67;102499.22;5052670;28;20164;-65
2023/03/28 01:54:32;;;;;;;1.05;0.55;;;;;;;20.06;33.66;102500.06;5037211;28;20041;-67
2023/03/28 01:57:16;;;;;;;1.98;0.95;;;;;;;20.06;33.63;102497.41;5034435;28;20029;-67
2023/03/28 02:00:05;;;;;;;0.85;0.50;;;;;;;20.04;33.62;102494.09;5045532;28;20045;-67
2023/03/28 02:02:56;;;;;;;1.08;0.60;;;;;;;20.04;33.70;102482.69;5029046;28;20060;-66
2023/03/28 02:05:28;;;;;;;3.03;1.25;;;;;;;19.94;33.86;102488.00;5037135;28;20648;-67
2023/03/28 02:07:54;;;;;;;1.85;0.60;;;;;;;19.98;33.77;102483.25;5034343;28;20140;-65
2023/03/28 02:10:41;;;;;;;2.53;0.80;;;;;;;19.92;33.95;102485.47;5030198;28;20045;-66
2023/03/28 02:13:32;;;;;;;1.02;0.85;;;;;;;19.89;33.89;102483.09;5040492;28;20072;-66
2023/03/28 02:16:35;;;;;;;1.90;0.65;;;;;;;19.86;34.00;102496.59;5042163;28;20064;-66
2023/03/28 02:19:23;;;;;;;1.65;0.65;;;;;;;19.84;33.99;102492.44;5040355;28;20485;-65
2023/03/28 02:22:16;;;;;;;1.90;0.90;;;;;;;19.79;33.90;102492.84;5039771;28;20034;-66
2023/03/28 02:25:14;;;;;;;3.35;1.08;;;;;;;19.78;34.04;102499.13;5032527;28;20049;-65
2023/03/28 02:28:05;;;;;;;1.63;1.00;;;;;;;19.75;34.01;102486.19;5039845;28;20049;-67
2023/03/28 02:30:50;;;;;;;1.90;0.82;;;;;;;19.65;34.27;102480.06;5037111;28;20211;-67
2023/03/28 02:33:41;;;;;;;2.63;0.95;;;;;;;19.70;34.03;102483.09;5036748;28;20061;-67
2023/03/28 02:36:16;;;;;;;1.60;1.10;;;;;;;19.71;34.08;102486.59;5035794;28;20486;-66
2023/03/28 02:39:24;;;;;;;0.93;0.70;;;;;;;19.60;34.38;102485.75;5043558;28;20399;-67
2023/03/28 02:42:11;;;;;;;0.90;0.70;;;;;;;19.67;34.27;102488.66;5042952;28;20034;-67
2023/03/28 02:44:51;;;;;;;0.88;0.80;;;;;;;19.56;34.58;102489.63;5048092;28;20105;-67
2023/03/28 02:47:26;;;;;;;1.70;0.93;;;;;;;19.59;34.50;102492.03;5041446;28;20446;-66
2023/03/28 02:49:54;;;;;;;1.42;0.75;;;;;;;19.63;34.29;102494.38;5042471;28;20082;-66
2023/03/28 02:52:33;;;;;;;1.27;0.57;;;;;;;19.63;34.26;102489.94;5043707;28;20378;-66
2023/03/28 02:55:04;;;;;;;2.10;0.90;;;;;;;19.65;34.34;102487.16;5051287;28;20025;-66
2023/03/28 02:57:55;;;;;;;2.05;1.20;;;;;;;19.63;34.29;102491.75;5043467;28;20033;-66
2023/03/28 03:00:21;;;;;;;1.73;0.75;;;;;;;19.76;33.98;102482.56;5038339;28;20090;-66
2023/03/28 03:02:50;;;;;;;1.80;0.95;;;;;;;19.99;33.66;102493.69;5046974;28;20518;-65
2023/03/28 03:05:19;;;;;;;1.60;0.80;;;;;;;20.11;33.54;102486.44;5038612;28;20033;-67
2023/03/28 03:07:46;;;;;;;1.80;0.60;;;;;;;20.08;33.60;102466.38;5040936;28;20085;-67
2023/03/28 03:10:13;;;;;;;1.70;0.75;;;;;;;20.12;33.50;102475.72;5035818;28;20049;-67
2023/03/28 03:12:43;;;;;;;1.30;0.88;;;;;;;20.09;33.60;102478.63;5039461;28;20033;-67
2023/03/28 03:15:10;;;;;;;0.98;0.73;;;;;;;20.10;33.69;102485.56;5043036;28;20132;-67
2023/03/28 03:17:53;;;;;;;1.60;1.10;;;;;;;20.10;33.48;102479.44;5039465;28;20039;-67
2023/03/28 03:20:25;;;;;;;2.33;0.77;;;;;;;19.95;33.57;102465.03;5049353;28;20060;-66
2023/03/28 03:22:53;;;;;;;1.10;0.60;;;;;;;20.08;33.67;102481.41;5054882;28;20128;-67
2023/03/28 03:25:19;;;;;;;2.05;0.82;;;;;;;20.03;33.70;102473.91;5044812;28;20726;-67
2023/03/28 03:27:54;;;;;;;1.27;0.57;;;;;;;20.06;33.76;102478.06;5024617;28;20468;-67
2023/03/28 03:30:21;;;;;;;3.00;1.00;;;;;;;20.03;33.71;102476.56;5027233;28;20050;-66
2023/03/28 03:33:09;;;;;;;1.75;0.90;;;;;;;19.99;33.81;102474.34;5034861;28;20088;-67
2023/03/28 03:35:36;;;;;;;2.35;1.05;;;;;;;20.00;33.66;102479.47;5031832;28;20049;-66
2023/03/28 03:38:04;;;;;;;1.13;0.60;;;;;;;19.94;33.88;102485.34;5021780;28;20033;-66
2023/03/28 03:40:30;;;;;;;0.88;0.60;;;;;;;19.95;33.86;102486.19;5024092;28;20464;-66
2023/03/28 03:42:56;;;;;;;1.95;0.82;;;;;;;19.94;33.88;102487.16;5026822;28;20095;-66
2023/03/28 03:45:21;;;;;;;1.70;0.90;;;;;;;19.87;33.92;102492.16;5024774;28;20037;-66
2023/03/28 03:47:47;;;;;;;2.35;0.77;;;;;;;19.87;33.99;102492.16;5017721;28;20038;-66
2023/03/28 03:50:13;;;;;;;1.60;0.90;;;;;;;19.78;33.91;102493.84;5032107;28;20042;-67
2023/03/28 03:52:39;;;;;;;2.83;0.93;;;;;;;19.82;34.05;102495.22;5021410;28;20188;-66
2023/03/28 03:55:05;;;;;;;1.98;0.73;;;;;;;19.70;34.16;102491.03;5017416;28;20380;-66
2023/03/28 03:57:36;;;;;;;1.45;0.93;;;;;;;19.68;34.24;102500.06;5026089;28;20790;-66
2023/03/28 04:00:10;;;;;;;1.58;1.05;;;;;;;19.70;34.17;102504.25;5014462;28;20088;-67
2023/03/28 04:02:45;;;;;;;2.05;0.82;;;;;;;19.72;34.18;102498.81;5023994;28;20049;-66
2023/03/28 04:05:12;;;;;;;1.65;0.95;;;;;;;19.63;34.33;102499.66;5016052;28;20030;-67
2023/03/28 04:07:59;;;;;;;1.48;1.13;;;;;;;19.67;34.15;102504.53;5019820;28;20052;-65
2023/03/28 04:10:31;;;;;;;1.48;0.93;;;;;;;19.54;34.30;102490.75;5022597;28;20059;-66
2023/03/28 04:12:57;;;;;;;2.08;0.90;;;;;;;19.49;34.53;102506.16;5018218;28;20125;-66
2023/03/28 04:15:23;;;;;;;0.55;0.52;;;;;;;19.60;34.28;102511.34;5014182;28;20096;-67
2023/03/28 04:18:07;;;;;;;2.03;0.95;;;;;;;19.54;34.43;102506.59;5024885;28;20040;-67
2023/03/28 04:20:39;;;;;;;1.17;0.80;;;;;;;19.48;34.41;102518.53;5020178;28;20416;-67
2023/03/28 04:23:08;;;;;;;2.05;0.80;;;;;;;19.50;34.40;102505.16;5049216;28;20046;-67
2023/03/28 04:25:35;;;;;;;1.00;0.52;;;;;;;19.51;34.38;102518.25;5024793;28;20166;-66
2023/03/28 04:28:08;;;;;;;0.65;0.57;;;;;;;19.53;34.42;102531.31;5056545;28;20045;-67
2023/03/28 04:30:40;;;;;;;2.85;1.20;;;;;;;19.61;34.33;102531.50;5038454;28;20514;-67
2023/03/28 04:33:27;;;;;;;0.68;0.60;;;;;;;19.54;34.37;102519.81;5019911;28;20115;-67
2023/03/28 04:36:01;;;;;;;1.45;1.08;;;;;;;19.51;34.35;102533.25;5058704;28;20203;-67
2023/03/28 04:38:36;;;;;;;0.90;0.52;;;;;;;19.50;34.44;102536.88;5039256;28;20048;-67
2023/03/28 04:41:25;;;;;;;1.10;0.90;;;;;;;19.54;34.37;102528.56;5055874;28;20030;-67
2023/03/28 04:44:21;;;;;;;1.48;0.50;;;;;;;19.46;34.54;102538.13;5042215;28;20041;-66
2023/03/28 04:46:55;;;;;;;2.33;0.90;;;;;;;19.58;34.26;102539.72;5040772;28;20029;-66
2023/03/28 04:49:22;;;;;;;3.22;1.30;;;;;;;19.62;34.23;102533.19;5038678;28;21336;-67
2023/03/28 04:51:49;;;;;;;2.03;0.85;;;;;;;19.59;34.23;102539.59;5036053;28;20030;-66
2023/03/28 04:54:15;;;;;;;0.60;0.43;;;;;;;19.58;34.37;102543.19;5039508;28;20033;-67
2023/03/28 04:56:46;;;;;;;1.23;0.60;;;;;;;19.52;34.27;102542.84;5036075;28;20041;-67
2023/03/28 04:59:16;;;;;;;2.15;0.60;;;;;;;19.65;34.05;102546.13;5044728;28;20041;-67
2023/03/28 05:01:48;;;;;;;1.95;0.98;;;;;;;19.83;33.77;102539.19;5043582;28;20067;-67
2023/03/28 05:04:32;;;;;;;1.25;0.80;;;;;;;20.18;33.30;102540.44;5042470;28;20048;-67
2023/03/28 05:07:03;;;;;;;1.17;0.68;;;;;;;20.43;32.91;102539.03;5048080;28;20256;-67
2023/03/28 05:09:29;;;;;;;1.13;0.57;;;;;;;20.44;32.89;102551.28;5044729;28;20037;-68
2023/03/28 05:11:56;;;;;;;2.17;0.75;;;;;;;20.39;33.01;102541.09;5048271;28;20033;-67
2023/03/28 05:14:21;;;;;;;1.42;0.60;;;;;;;20.30;33.17;102546.41;5044298;28;20403;-66
2023/03/28 05:16:51;;;;;;;;;;;;;;;20.22;33.35;102552.41;5046262;28;20072;-66
2023/03/28 05:19:52;;;;;;;2.17;0.98;;;;;;;20.14;33.44;102558.41;5024023;28;19921;-67
2023/03/28 05:22:21;;;;;;;1.48;0.82;;;;;;;20.11;33.54;102549.91;5034487;28;20132;-66
2023/03/28 05:24:47;;;;;;;2.42;0.85;;;;;;;20.07;33.61;102553.78;5053022;28;20068;-66
2023/03/28 05:27:16;;;;;;;1.05;0.95;;;;;;;20.03;33.67;102560.34;5047204;28;20053;-66
2023/03/28 05:29:42;;;;;;;1.58;0.88;;;;;;;20.03;33.76;102555.06;5044032;28;20072;-66
2023/03/28 05:32:08;;;;;;;2.53;1.45;;;;;;;19.87;33.75;102534.44;5037565;28;20038;-66
2023/03/28 05:34:34;;;;;;;1.63;1.00;;;;;;;19.98;33.81;102554.63;5038027;28;20057;-66
2023/03/28 05:37:01;;;;;;;1.63;0.82;;;;;;;19.97;33.80;102558.25;5037617;28;20041;-67
2023/03/28 05:39:31;;;;;;;1.17;0.68;;;;;;;19.98;33.68;102557.28;5037767;28;20033;-67
2023/03/28 05:42:05;;;;;;;1.55;0.75;;;;;;;19.97;33.83;102558.25;5040168;28;20096;-66
2023/03/28 05:44:34;;;;;;;1.33;0.95;;;;;;;19.97;33.75;102564.38;5039082;28;20064;-67
2023/03/28 05:47:29;;;;;;;0.88;0.80;;;;;;;19.92;33.81;102551.56;5038225;28;20045;-66
2023/03/28 05:49:56;;;;;;;1.80;1.00;;;;;;;19.89;33.92;102559.78;5037563;28;20076;-67
2023/03/28 05:52:22;;;;;;;0.85;0.70;;;;;;;19.89;33.82;102565.06;5038851;28;20033;-66
2023/03/28 05:54:48;;;;;;;2.90;0.80;;;;;;;19.87;34.09;102555.59;5048446;28;20048;-67
2023/03/28 05:57:16;;;;;;;1.38;0.73;;;;;;;19.88;33.91;102563.38;5043781;28;20037;-66
2023/03/28 05:59:42;;;;;;;2.08;1.05;;;;;;;19.84;34.05;102553.22;5038898;28;20065;-67
2023/03/28 06:02:16;;;;;;;1.63;0.75;;;;;;;19.80;33.90;102557.97;5040219;28;20033;-66
2023/03/28 06:04:43;;;;;;;1.95;0.85;;;;;;;19.77;33.96;102552.97;5043993;28;20589;-67
2023/03/28 06:07:12;;;;;;;1.65;0.75;;;;;;;19.70;34.02;102557.09;5034724;28;20772;-67
2023/03/28 06:09:39;;;;;;;1.73;0.80;;;;;;;19.73;34.01;102562.13;5054022;28;20702;-67
2023/03/28 06:12:06;;;;;;;1.55;0.60;;;;;;;19.70;34.16;102561.56;5040006;28;20207;-68
2023/03/28 06:14:32;;;;;;;2.22;0.90;;;;;;;19.87;33.78;102566.16;5059831;28;20052;-66
2023/03/28 06:17:02;;;;;;;1.50;0.90;;;;;;;20.30;33.23;102567.59;5037523;28;20033;-67
2023/03/28 06:19:35;;;;;;;1.77;0.85;;;;;;;20.77;32.42;102560.53;5046107;28;20044;-66
2023/03/28 06:22:01;;;;;;;1.42;0.82;;;;;;;21.31;31.66;102556.28;5045794;28;20049;-67
2023/03/28 06:24:27;;;;;;;1.35;0.77;;;;;;;21.48;31.41;102552.84;5045145;28;20040;-66
2023/03/28 06:26:53;;;;;;;1.33;0.95;;;;;;;21.45;31.80;102554.97;5041437;28;20065;-67
2023/03/28 06:29:22;;;;;;;1.05;0.60;;;;;;;21.38;31.66;102560.03;5047416;28;20037;-66
2023/03/28 06:31:56;;;;;;;0.80;0.70;;;;;;;21.37;31.94;102564.50;5042274;28;20029;-66
2023/03/28 06:34:22;;;;;;;1.40;0.73;;;;;;;21.26;32.11;102571.81;5043646;28;20067;-66
2023/03/28 06:36:53;;;;;;;1.55;0.93;;;;;;;21.18;32.04;102561.91;5044718;28;20047;-66
2023/03/28 06:39:19;;;;;;;1.02;0.70;;;;;;;21.06;32.38;102571.03;5043552;28;21262;-66
2023/03/28 06:41:45;;;;;;;1.38;0.90;;;;;;;20.94;32.67;102561.59;5050880;28;20047;-65
2023/03/28 06:44:10;;;;;;;1.13;0.70;;;;;;;20.86;32.68;102569.44;5041834;28;20447;-67
2023/03/28 06:46:55;;;;;;;1.10;0.73;;;;;;;20.77;32.90;102568.47;5039586;28;20163;-66
2023/03/28 06:49:21;;;;;;;2.20;1.00;;;;;;;20.68;33.00;102579.94;5037841;28;20037;-67
2023/03/28 06:52:25;;;;;;;2.08;0.98;;;;;;;20.50;33.09;102564.78;5032423;28;20041;-67
2023/03/28 06:54:52;;;;;;;1.85;0.60;;;;;;;20.57;33.23;102580.94;5041631;28;20128;-66
2023/03/28 06:57:18;;;;;;;1.15;0.90;;;;;;;20.50;33.27;102585.13;5042292;28;20052;-66
2023/03/28 06:59:45;;;;;;;1.67;0.70;;;;;;;20.45;33.51;102588.19;5043231;28;20038;-66
2023/03/28 07:02:17;;;;;;;0.95;0.63;;;;;;;20.42;33.53;102584.97;5039856;28;20493;-67
2023/03/28 07:04:43;;;;;;;1.30;0.90;;;;;;;20.39;33.62;102588.72;5038015;28;20052;-67
2023/03/28 07:07:09;;;;;;;1.25;0.63;;;;;;;20.32;33.62;102573.56;5045945;28;20041;-66
2023/03/28 07:09:35;;;;;;;1.40;1.10;;;;;;;20.38;33.63;102584.41;5045616;28;20040;-66
2023/03/28 07:12:06;;;;;;;2.42;0.80;;;;;;;20.34;33.56;102584.84;5039823;28;20037;-66
2023/03/28 07:14:32;;;;;;;2.05;0.70;;;;;;;20.30;33.70;102581.66;5039244;28;20115;-67
2023/03/28 07:16:59;;;;;;;1.35;0.70;;;;;;;20.29;33.67;102590.56;5039211;28;20041;-67
2023/03/28 07:19:25;;;;;;;1.70;1.15;;;;;;;20.28;33.70;102585.38;5037605;28;20051;-67
2023/03/28 07:21:52;;;;;;;1.10;0.75;;;;;;;20.32;33.73;102587.63;5043462;28;20044;-66
2023/03/28 07:24:18;;;;;;;2.53;1.08;;;;;;;20.53;33.32;102582.19;5056489;28;20060;-66
2023/03/28 07:26:53;;;;;;;1.92;0.85;;;;;;;21.01;32.64;102592.66;5040243;28;20518;-66
2023/03/28 07:29:18;;;;;;;1.35;0.63;;;;;;;21.27;32.30;102586.72;5042535;28;20037;-66
2023/03/28 07:31:44;;;;;;;1.25;0.57;;;;;;;21.36;31.85;102577.88;5036695;28;20028;-66
2023/03/28 07:34:10;;;;;;;1.10;0.80;;;;;;;21.26;32.12;102585.88;5041747;28;20710;-65
2023/03/28 07:36:38;;;;;;;2.45;1.10;;;;;;;21.30;31.97;102587.25;5038249;28;20045;-65
2023/03/28 07:39:10;;;;;;;2.42;0.90;;;;;;;21.22;32.40;102586.31;5037629;28;20040;-65
2023/03/28 07:41:37;;;;;;;2.45;0.80;;;;;;;21.15;32.29;102586.03;5038005;28;20711;-65
2023/03/28 07:44:03;;;;;;;2.00;0.60;;;;;;;21.17;32.34;102581.44;5042185;28;20039;-65
2023/03/28 07:46:31;;;;;;;3.17;1.08;;;;;;;21.09;32.58;102589.28;5035330;28;20404;-67
2023/03/28 07:48:58;;;;;;;2.63;0.85;;;;;;;21.08;32.60;102591.09;5043175;28;20072;-65
2023/03/28 07:51:24;;;;;;;1.92;1.20;;;;;;;21.03;32.41;102589.88;5044111;28;20086;-66
2023/03/28 07:53:50;;;;;;;3.10;1.83;;;;;;;21.04;32.55;102597.66;5043913;28;20033;-66
2023/03/28 07:56:16;;;;;;;1.55;0.90;;;;;;;21.02;32.75;102596.16;5037520;28;20040;-68
2023/03/28 07:59:00;;;;;;;5.13;1.05;;;;;;;20.96;32.64;102597.53;5030006;28;20049;-67
2023/03/28 08:01:26;;;;;;;3.25;1.00;;;;;;;20.98;32.59;102594.75;5033650;28;20471;-67
2023/03/28 08:04:01;;;;;;;3.05;0.80;;;;;;;20.94;32.78;102596.03;5042086;28;20037;-66
2023/03/28 08:06:39;;;;;;;1.88;0.68;;;;;;;20.95;32.81;102597.69;5022032;28;20415;-66
2023/03/28 08:09:10;;;;;;;1.48;0.93;;;;;;;20.90;32.79;102597.28;5032890;28;20041;-67
2023/03/28 08:11:40;;;;;;;3.53;1.00;;;;;;;20.93;32.82;102597.84;5040641;28;20029;-68
2023/03/28 08:14:08;;;;;;;3.05;1.27;;;;;;;20.88;33.00;102600.09;5039714;28;20048;-67
2023/03/28 08:16:34;;;;;;;3.65;0.80;;;;;;;20.86;33.02;102603.88;5041590;28;20029;-67
2023/03/28 08:19:00;;;;;;;1.45;0.80;;;;;;;20.84;33.00;102604.00;5044471;28;20037;-66
2023/03/28 08:21:29;;;;;;;1.23;0.85;;;;;;;20.86;32.75;102607.34;5031742;28;20060;-66
2023/03/28 08:23:56;;;;;;;2.03;0.90;;;;;;;20.82;32.95;102605.94;5056346;28;20037;-66
2023/03/28 08:26:31;;;;;;;1.42;0.73;;;;;;;20.81;32.99;102598.97;5040353;28;20132;-66
2023/03/28 08:28:59;;;;;;;2.70;0.80;;;;;;;20.76;32.80;102595.94;5040116;28;20048;-67
2023/03/28 08:31:27;;;;;;;1.70;0.80;;;;;;;20.77;32.72;102600.25;5038324;28;20036;-67
2023/03/28 08:34:00;;;;;;;0.93;0.52;;;;;;;20.73;33.05;102606.81;5039756;28;20152;-66
2023/03/28 08:36:31;;;;;;;1.23;0.82;;;;;;;20.69;33.06;102602.78;5047354;28;20051;-66
2023/03/28 08:38:59;;;;;;;3.35;0.90;;;;;;;20.66;32.99;102605.72;5049519;28;20063;-67
2023/03/28 08:41:34;;;;;;;1.75;1.00;;;;;;;20.67;32.92;102602.09;5042537;28;20120;-67
2023/03/28 08:44:22;;;;;;;1.55;0.80;;;;;;;20.66;32.91;102603.91;5043523;28;20043;-66
2023/03/28 08:46:55;;;;;;;1.58;0.90;;;;;;;20.66;32.94;102603.91;5042337;28;20033;-67
2023/03/28 08:49:21;;;;;;;1.42;0.95;;;;;;;20.62;32.91;102601.66;5035967;28;20041;-66
2023/03/28 08:52:00;;;;;;;2.40;0.93;;;;;;;20.61;32.75;102603.47;5043843;28;20079;-67
2023/03/28 08:54:35;;;;;;;2.42;1.15;;;;;;;20.65;32.82;102604.88;5036182;28;20430;-66
2023/03/28 08:57:04;;;;;;;1.98;1.02;;;;;;;20.94;32.34;102606.63;5070441;28;20033;-71
2023/03/28 08:59:39;;;;;;;2.63;1.00;;;;;;;21.10;32.16;102597.06;5054607;28;20026;-66
2023/03/28 09:02:18;;;;;;;3.53;1.13;;;;;;;21.45;31.65;102600.84;5049921;28;20041;-66
2023/03/28 09:04:46;;;;;;;0.80;0.63;;;;;;;21.56;31.35;102594.53;5045248;28;20476;-66
2023/03/28 09:07:22;;;;;;;1.40;0.60;;;;;;;21.52;31.67;102593.97;5036683;28;20037;-67
2023/03/28 09:10:00;;;;;;;1.63;1.00;;;;;;;21.45;31.55;102587.59;5039522;28;20139;-68
2023/03/28 09:13:01;;;;;;;1.25;0.73;;;;;;;21.35;31.51;102594.75;5037735;28;20025;-67
2023/03/28 09:15:40;;;;;;;1.50;0.90;;;;;;;21.35;31.62;102600.06;5037003;28;20036;-68
2023/03/28 09:18:16;;;;;;;2.38;1.08;;;;;;;21.31;31.77;102594.22;5042538;28;20057;-69
2023/03/28 09:20:52;;;;;;;3.33;0.90;;;;;;;21.30;31.98;102597.03;5043262;28;20070;-67
2023/03/28 09:23:54;;;;;;;1.20;0.60;;;;;;;21.29;31.81;102598.84;5037384;28;20052;-67
2023/03/28 09:26:46;;;;;;;1.80;0.85;;;;;;;21.22;31.98;102599.56;5040132;28;21379;-67
2023/03/28 09:29:19;;;;;;;4.20;1.20;;;;;;;20.97;31.18;102590.44;5038758;28;20484;-70
2023/03/28 09:31:53;;;;;;;2.35;0.95;;;;;;;21.02;31.94;102585.56;5036853;28;20039;-69
2023/03/28 09:34:29;;;;;;;2.65;0.80;;;;;;;21.07;31.99;102585.94;5028553;28;20037;-68
2023/03/28 09:37:21;;;;;;;8.85;0.90;;;;;;;21.12;31.70;102587.16;5045594;28;20068;-68
2023/03/28 09:39:51;;;;;;;1.42;0.47;;;;;;;21.11;31.88;102585.50;5047004;28;20064;-68
2023/03/28 09:42:30;;;;;;;2.55;0.80;;;;;;;21.10;32.12;102583.84;5032701;28;20037;-68
2023/03/28 09:45:29;;;;;;;1.45;1.00;;;;;;;21.07;31.87;102588.59;5039139;28;20076;-68
2023/03/28 09:48:22;;;;;;;1.17;0.95;;;;;;;20.90;32.24;102584.88;5046392;28;20048;-69
2023/03/28 09:50:49;;;;;;;2.88;0.70;;;;;;;20.93;31.91;102583.75;5061650;28;20075;-68
2023/03/28 09:53:42;;;;;;;3.00;0.65;;;;;;;20.87;31.88;102581.69;5045805;28;20029;-69
2023/03/28 09:56:08;;;;;;;1.08;0.80;;;;;;;20.88;31.77;102584.19;5057319;28;20060;-69
2023/03/28 09:59:09;;;;;;;1.10;0.77;;;;;;;20.79;31.93;102570.00;5043152;28;20064;-69
2023/03/28 10:01:43;;;;;;;1.48;0.73;;;;;;;20.78;31.96;102567.50;5043854;28;20617;-68
2023/03/28 10:04:27;;;;;;;2.75;1.05;;;;;;;20.67;32.09;102563.22;5041031;28;20056;-68
2023/03/28 10:07:31;;;;;;;1.95;0.90;;;;;;;20.67;32.10;102563.22;5043865;28;20041;-68
2023/03/28 10:10:27;;;;;;;0.57;0.55;;;;;;;20.55;32.22;102564.34;5056096;28;20562;-69
2023/03/28 10:13:02;;;;;;;0.85;0.50;;;;;;;20.62;31.94;102551.38;5052606;28;20152;-68
2023/03/28 10:15:49;;;;;;;2.55;0.98;;;;;;;20.69;32.02;102549.84;5042790;28;20060;-69
2023/03/28 10:18:23;;;;;;;1.02;0.52;;;;;;;20.99;31.37;102551.38;5039856;28;20037;-67
2023/03/28 10:21:16;;;;;;;1.50;0.85;;;;;;;21.01;31.64;102550.28;5038957;28;20052;-69
2023/03/28 10:23:58;;;;;;;3.42;1.23;;;;;;;21.07;31.26;102548.88;5044946;28;20044;-68
2023/03/28 10:26:26;;;;;;;2.05;0.90;;;;;;;20.99;31.08;102538.16;5042569;28;20543;-67
2023/03/28 10:28:56;;;;;;;2.33;0.90;;;;;;;20.94;31.11;102540.41;5038202;28;20135;-68
2023/03/28 10:31:29;;;;;;;2.50;0.80;;;;;;;20.92;31.15;102539.72;5046269;28;20032;-68
2023/03/28 10:34:07;;;;;;;1.85;0.70;;;;;;;20.86;31.35;102527.06;5043466;28;20387;-68
2023/03/28 10:36:54;;;;;;;4.43;1.00;;;;;;;20.90;30.97;102531.94;5046247;28;20095;-67
2023/03/28 10:39:29;;;;;;;1.55;0.88;;;;;;;20.84;31.04;102534.34;5058878;28;20065;-68
2023/03/28 10:42:15;;;;;;;1.70;0.73;;;;;;;20.81;31.14;102538.06;5019994;28;20503;-70
2023/03/28 10:45:24;;;;;;;2.00;0.65;;;;;;;20.76;31.24;102541.16;5030984;28;20574;-68
2023/03/28 10:47:55;;;;;;;1.20;0.63;;;;;;;20.77;31.30;102534.91;5011289;28;20036;-67
2023/03/28 10:50:37;;;;;;;1.80;1.10;;;;;;;20.72;31.13;102531.84;5028243;28;20059;-66
2023/03/28 10:53:37;;;;;;;2.17;0.90;;;;;;;20.67;31.28;102535.91;5040044;28;20039;-68
2023/03/28 10:56:15;;;;;;;3.10;1.52;;;;;;;20.80;30.84;102533.75;5036247;28;20032;-67
2023/03/28 10:59:15;;;;;;;2.30;1.00;;;;;;;20.94;30.33;102528.00;5037942;28;20040;-68
2023/03/28 11:01:51;;;;;;;1.48;0.70;;;;;;;20.93;30.59;102517.56;5037174;28;20094;-68
2023/03/28 11:04:41;;;;;;;0.98;0.80;;;;;;;21.05;30.30;102517.22;5049477;28;20172;-67
2023/03/28 11:07:17;;;;;;;;;;;;;;;21.05;30.27;102511.94;5055077;28;20490;-68
2023/03/28 11:10:21;;;;;;;1.50;0.77;;;;;;;20.98;30.50;102502.06;5051561;28;19916;-68
2023/03/28 11:13:13;;;;;;;2.42;0.93;;;;;;;21.03;30.39;102503.31;5036418;28;20254;-68
2023/03/28 11:16:13;;;;;;;1.15;0.63;;;;;;;21.14;30.10;102504.91;5053400;28;20059;-69
2023/03/28 11:19:05;;;;;;;2.40;0.90;;;;;;;21.22;30.23;102512.13;5038690;28;20052;-68
2023/03/28 11:21:53;;;;;;;3.15;0.95;;;;;;;21.17;30.13;102493.16;5044024;28;20033;-68
2023/03/28 11:24:34;;;;;;;0.98;0.63;;;;;;;21.18;30.02;102494.84;5042212;28;20148;-70
2023/03/28 11:27:15;;;;;;;2.15;1.23;;;;;;;21.17;30.38;102498.47;5040208;28;20049;-69
2023/03/28 11:30:43;;;;;;;3.17;0.85;;;;;;;21.09;30.20;102486.81;5028435;28;20124;-68
2023/03/28 11:33:21;;;;;;;2.40;0.88;;;;;;;21.02;30.04;102477.81;5033854;28;20029;-67
2023/03/28 11:36:20;;;;;;;2.58;0.85;;;;;;;21.01;30.16;102484.09;5062214;28;20025;-67
2023/03/28 11:38:52;;;;;;;0.77;0.77;;;;;;;20.95;30.44;102462.63;5041138;28;20821;-68
2023/03/28 11:41:23;;;;;;;2.40;1.02;;;;;;;20.89;30.84;102466.72;5037925;28;20033;-68
2023/03/28 11:44:19;;;;;;;1.60;1.00;;;;;;;20.87;30.73;102468.69;5050113;28;20038;-70
2023/03/28 11:46:55;;;;;;;3.85;1.30;;;;;;;20.85;30.69;102456.56;5037496;28;20505;-68
2023/03/28 11:49:47;;;;;;;0.70;0.70;;;;;;;20.82;30.61;102455.03;5035577;28;20033;-69
2023/03/28 11:52:46;;;;;;;2.85;0.90;;;;;;;20.76;30.57;102450.31;5032965;28;20115;-70
2023/03/28 11:55:25;;;;;;;2.10;0.85;;;;;;;20.84;30.61;102442.50;5043199;28;20469;-69
2023/03/28 11:58:04;;;;;;;3.80;1.08;;;;;;;20.90;30.52;102455.13;5036734;28;20828;-69
2023/03/28 12:00:46;;;;;;;1.48;1.10;;;;;;;21.02;30.71;102440.72;5037839;28;20045;-68
2023/03/28 12:03:29;;;;;;;2.75;1.17;;;;;;;21.04;30.70;102430.81;5044711;28;20074;-69
2023/03/28 12:06:22;;;;;;;1.08;0.68;;;;;;;21.05;30.49;102445.72;5041391;28;20033;-68